Time;durP1;ratioP1;P1;durP2;ratioP2;P2;SDS_P1;SDS_P2;PMS_P1;PMS_P2;Temp;Humidity;BMP_temperature;BMP_pressure;BME280_temperature;BME280_humidity;BME280_pressure;Samples;Min_cycle;Max_cycle;Signal;HPM_P1;HPM_P2
2024/03/08 00:02:15;;;;;;;;;;;2.90;99.90;;;1.62;100.00;97718.66;4948530;28;1521;-69
2024/03/08 00:04:42;;;;;;;;;;;2.90;99.90;;;1.66;100.00;97718.63;4953578;28;1449;-69
2024/03/08 00:07:09;;;;;;;;;;;2.90;99.90;;;1.64;100.00;97715.25;4950540;28;1441;-69
2024/03/08 00:09:36;;;;;;;;;;;2.90;99.90;;;1.44;100.00;97714.50;4954627;28;1473;-69
2024/03/08 00:12:03;;;;;;;;;;;2.80;99.90;;;1.56;100.00;97713.59;4956870;28;1383;-69
2024/03/08 00:14:30;;;;;;;;;;;2.80;99.90;;;1.61;100.00;97714.41;4953602;28;1367;-69
2024/03/08 00:16:57;;;;;;;;;;;2.80;99.90;;;1.59;100.00;97708.47;4952637;28;1338;-69
2024/03/08 00:19:24;;;;;;;;;;;2.80;99.90;;;1.62;100.00;97704.19;4955819;28;1362;-69
2024/03/08 00:21:51;;;;;;;;;;;2.80;99.90;;;1.73;100.00;97711.78;4960978;28;2015;-69
2024/03/08 00:24:18;;;;;;;;;;;2.90;99.90;;;1.51;100.00;97710.22;4997017;28;1438;-69
2024/03/08 00:26:45;;;;;;;;;;;2.90;99.90;;;1.47;100.00;97709.38;4958862;28;1470;-69
2024/03/08 00:29:13;;;;;;;;;;;2.80;99.90;;;1.65;100.00;97704.16;4957474;28;2036;-69
2024/03/08 00:31:40;;;;;;;;;;;2.80;99.90;;;1.54;100.00;97705.06;4949991;28;2863;-69
2024/03/08 00:34:06;;;;;;;;;;;2.80;99.90;;;1.57;100.00;97700.78;4949342;28;1405;-69
2024/03/08 00:36:34;;;;;;;;;;;2.80;99.90;;;1.52;100.00;97699.97;4954983;28;1336;-69
2024/03/08 00:39:00;;;;;;;;;;;2.80;99.90;;;1.75;100.00;97704.09;4964627;28;1358;-69
2024/03/08 00:41:28;;;;;;;;;;;2.80;99.90;;;1.67;100.00;97701.59;4952254;28;1977;-70
2024/03/08 00:43:55;;;;;;;;;;;2.80;99.90;;;1.67;100.00;97702.44;4946293;28;1272;-69
2024/03/08 00:46:22;;;;;;;;;;;2.80;99.90;;;1.64;100.00;97704.16;4961119;28;1262;-69
2024/03/08 00:48:48;;;;;;;;;;;2.80;99.90;;;1.50;100.00;97699.09;4951531;28;1394;-69
2024/03/08 00:51:16;;;;;;;;;;;2.80;99.90;;;1.51;100.00;97693.16;4957936;28;1503;-69
2024/03/08 00:53:43;;;;;;;;;;;2.80;99.90;;;1.55;100.00;97699.09;4952148;28;1268;-69
2024/03/08 00:56:10;;;;;;;;;;;2.80;99.90;;;1.63;100.00;97700.75;4952720;28;1426;-69
2024/03/08 00:58:36;;;;;;;;;;;2.80;99.90;;;1.64;100.00;97686.25;4949158;28;1365;-69
2024/03/08 01:01:04;;;;;;;;;;;2.80;99.90;;;1.53;100.00;97688.88;4952218;28;2241;-69
2024/03/08 01:03:31;;;;;;;;;;;2.80;99.90;;;1.63;100.00;97689.69;4954095;28;1346;-69
2024/03/08 01:06:01;;;;;;;;;;;2.80;99.90;;;1.57;100.00;97672.63;4951959;28;1225;-69
2024/03/08 01:08:28;;;;;;;;;;;2.80;99.90;;;1.42;100.00;97678.69;4954564;28;1107;-69
2024/03/08 01:10:54;;;;;;;;;;;2.70;99.90;;;1.53;100.00;97677.78;4940063;28;1956;-69
2024/03/08 01:13:21;;;;;;;;;;;2.70;99.90;;;1.55;100.00;97673.50;4951573;28;1148;-69
2024/03/08 01:15:48;;;;;;;;;;;2.70;99.90;;;1.44;100.00;97681.25;4952289;28;1404;-69
2024/03/08 01:18:15;;;;;;;;;;;2.70;99.90;;;1.45;100.00;97675.28;4965115;28;1409;-69
2024/03/08 01:20:42;;;;;;;;;;;2.70;99.90;;;1.31;100.00;97674.50;4961021;28;1979;-69
2024/03/08 01:23:09;;;;;;;;;;;2.60;99.90;;;1.39;100.00;97668.50;4951388;28;1329;-69
2024/03/08 01:25:35;;;;;;;;;;;2.60;99.90;;;1.28;100.00;97670.25;4959321;28;1330;-69
2024/03/08 01:28:03;;;;;;;;;;;2.60;99.90;;;1.43;100.00;97661.63;4964755;28;1390;-69
2024/03/08 01:30:29;;;;;;;;;;;2.60;99.90;;;1.25;100.00;97654.88;4957029;28;1323;-69
2024/03/08 01:32:56;;;;;;;;;;;2.50;99.90;;;1.35;100.00;97656.56;4945293;28;1393;-69
2024/03/08 01:35:23;;;;;;;;;;;2.50;99.90;;;1.37;100.00;97651.41;4951118;28;1239;-69
2024/03/08 01:37:50;;;;;;;;;;;2.60;99.90;;;1.42;100.00;97647.16;4948195;28;1661;-69
2024/03/08 01:40:17;;;;;;;;;;;2.50;99.90;;;1.19;100.00;97645.56;4951401;28;1919;-69
2024/03/08 01:42:44;;;;;;;;;;;2.50;99.90;;;1.25;100.00;97648.09;4936738;28;1286;-69
2024/03/08 01:45:11;;;;;;;;;;;2.50;99.90;;;1.34;100.00;97642.06;4953645;28;1227;-69
2024/03/08 01:47:38;;;;;;;;;;;2.50;99.90;;;1.20;100.00;97638.72;4949270;28;1213;-69
2024/03/08 01:50:06;;;;;;;;;;;2.50;99.90;;;1.08;100.00;97633.69;4931883;28;1927;-69
2024/03/08 01:52:34;;;;;;;;;;;2.40;99.90;;;1.15;100.00;97641.31;4943205;28;1485;-69
2024/03/08 01:55:02;;;;;;;;;;;2.40;99.90;;;1.35;100.00;97637.81;4959309;28;1297;-69
2024/03/08 01:57:31;;;;;;;;;;;2.50;99.90;;;1.42;100.00;97636.94;4953901;28;1972;-69
2024/03/08 01:59:58;;;;;;;;;;;2.50;99.90;;;1.29;100.00;97631.00;4962238;28;1383;-69
2024/03/08 02:02:25;;;;;;;;;;;2.50;99.90;;;1.42;100.00;97622.44;4954121;28;1931;-69
2024/03/08 02:04:52;;;;;;;;;;;2.60;99.90;;;1.31;100.00;97623.34;4984542;28;1334;-69
2024/03/08 02:07:21;;;;;;;;;;;2.50;99.90;;;1.36;100.00;97608.81;4957969;28;1616;-69
2024/03/08 02:09:48;;;;;;;;;;;2.50;99.90;;;1.33;100.00;97613.97;4953139;28;1391;-69
2024/03/08 02:12:15;;;;;;;;;;;2.50;99.90;;;1.41;100.00;97610.47;4983662;28;1663;-69
2024/03/08 02:14:43;;;;;;;;;;;2.50;99.90;;;1.34;100.00;97597.75;4948421;28;1251;-69
2024/03/08 02:17:11;;;;;;;;;;;2.50;99.90;;;1.35;100.00;97592.63;4948003;28;1541;-69
2024/03/08 02:19:38;;;;;;;;;;;2.50;99.90;;;1.32;100.00;97594.34;4953662;28;1401;-69
2024/03/08 02:22:05;;;;;;;;;;;2.50;99.90;;;1.30;100.00;97590.94;4949659;28;1919;-69
2024/03/08 02:24:33;;;;;;;;;;;2.50;99.90;;;1.28;100.00;97588.41;4967959;28;1352;-69
2024/03/08 02:27:00;;;;;;;;;;;2.50;99.90;;;1.34;100.00;97587.50;4958724;28;1609;-69
2024/03/08 02:29:27;;;;;;;;;;;2.50;99.90;;;1.29;100.00;97576.47;4953519;28;1113;-69
2024/03/08 02:31:55;;;;;;;;;;;2.40;99.90;;;1.31;100.00;97579.88;4943132;28;1324;-69
2024/03/08 02:34:22;;;;;;;;;;;2.40;99.90;;;1.32;100.00;97581.56;4944800;28;1161;-69
2024/03/08 02:36:49;;;;;;;;;;;2.40;99.90;;;1.23;100.00;97583.31;4946834;28;1551;-69
2024/03/08 02:39:15;;;;;;;;;;;2.40;99.90;;;1.29;100.00;97576.47;4950112;28;1126;-69
2024/03/08 02:41:42;;;;;;;;;;;2.40;99.90;;;1.34;100.00;97580.69;4943710;28;1902;-69
2024/03/08 02:44:09;;;;;;;;;;;2.40;99.90;;;1.34;100.00;97573.00;4969817;28;1097;-69
2024/03/08 02:46:36;;;;;;;;;;;2.50;99.90;;;1.50;100.00;97576.31;4945368;28;1042;-69
2024/03/08 02:49:03;;;;;;;;;;;2.50;99.90;;;1.36;100.00;97568.75;4944541;28;1065;-69
2024/03/08 02:51:30;;;;;;;;;;;2.50;99.90;;;1.28;100.00;97575.63;4954636;28;1263;-69
2024/03/08 02:53:57;;;;;;;;;;;2.50;99.90;;;1.35;100.00;97569.63;4949225;28;1339;-69
2024/03/08 02:56:24;;;;;;;;;;;2.50;99.90;;;1.38;100.00;97569.59;4952323;28;1094;-69
2024/03/08 02:58:51;;;;;;;;;;;2.50;99.90;;;1.39;100.00;97561.06;4943194;28;1128;-69
2024/03/08 03:01:20;;;;;;;;;;;2.50;99.90;;;1.32;100.00;97561.94;4943963;28;1899;-69
2024/03/08 03:03:47;;;;;;;;;;;2.50;99.90;;;1.28;100.00;97554.28;4949889;28;1188;-69
2024/03/08 03:06:15;;;;;;;;;;;2.50;99.90;;;1.31;100.00;97557.69;4947995;28;1288;-70
2024/03/08 03:08:42;;;;;;;;;;;2.50;99.90;;;1.26;100.00;97554.34;4946294;28;1300;-69
2024/03/08 03:11:09;;;;;;;;;;;2.40;99.90;;;1.15;100.00;97556.09;4941729;28;1284;-69
2024/03/08 03:13:36;;;;;;;;;;;2.40;99.90;;;1.18;100.00;97556.91;4942946;28;1193;-69
2024/03/08 03:16:03;;;;;;;;;;;2.40;99.90;;;1.07;100.00;97548.44;4949544;28;1112;-69
2024/03/08 03:18:30;;;;;;;;;;;2.30;99.90;;;1.06;100.00;97544.22;4946300;28;1142;-69
2024/03/08 03:20:57;;;;;;;;;;;2.30;99.90;;;1.10;100.00;97542.50;4942138;28;1931;-69
2024/03/08 03:23:26;;;;;;;;;;;2.30;99.90;;;0.99;100.00;97543.38;4941873;28;1070;-69
2024/03/08 03:25:53;;;;;;;;;;;2.30;99.90;;;1.08;100.00;97549.31;4944223;28;1170;-69
2024/03/08 03:28:21;;;;;;;;;;;2.20;99.90;;;1.05;100.00;97542.53;4941649;28;1284;-69
2024/03/08 03:30:48;;;;;;;;;;;2.30;99.90;;;1.01;100.00;97540.84;4943401;28;1363;-69
2024/03/08 03:33:16;;;;;;;;;;;2.20;99.90;;;1.02;100.00;97533.13;4953219;28;1394;-69
2024/03/08 03:35:44;;;;;;;;;;;2.20;99.90;;;0.97;100.00;97541.69;4949659;28;1352;-69
2024/03/08 03:38:11;;;;;;;;;;;2.20;99.90;;;0.79;100.00;97527.31;4943763;28;2074;-69
2024/03/08 03:40:39;;;;;;;;;;;2.10;99.90;;;0.78;100.00;97540.94;4939873;28;1895;-69
2024/03/08 03:43:07;;;;;;;;;;;2.10;99.90;;;0.71;100.00;97537.56;4948549;28;1088;-69
2024/03/08 03:45:35;;;;;;;;;;;2.00;99.90;;;0.73;100.00;97530.75;4949778;28;1176;-69
2024/03/08 03:48:09;;;;;;;;;;;2.00;99.90;;;0.69;100.00;97536.72;4947641;28;1274;-69
2024/03/08 03:50:38;;;;;;;;;;;2.00;99.90;;;0.71;100.00;97536.69;4946760;28;1296;-69
2024/03/08 03:53:09;;;;;;;;;;;2.00;99.90;;;0.59;100.00;97530.81;4945902;28;1094;-69
2024/03/08 03:55:38;;;;;;;;;;;1.90;99.90;;;0.61;100.00;97531.63;4942860;28;1363;-69
2024/03/08 03:58:09;;;;;;;;;;;1.90;99.90;;;0.56;100.00;97527.41;4946527;28;1485;-69
2024/03/08 04:00:36;;;;;;;;;;;1.80;99.90;;;0.40;100.00;97529.16;4974561;28;1958;-69
2024/03/08 04:03:03;;;;;;;;;;;1.70;99.90;;;0.35;100.00;97524.06;4940307;28;1400;-69
2024/03/08 04:05:30;;;;;;;;;;;1.70;99.90;;;0.53;100.00;97527.44;4947726;28;1279;-69
2024/03/08 04:07:57;;;;;;;;;;;1.70;99.90;;;0.49;100.00;97528.28;4949653;28;1149;-69
2024/03/08 04:10:24;;;;;;;;;;;1.70;99.90;;;0.59;100.00;97527.38;4953241;28;1295;-69
2024/03/08 04:12:52;;;;;;;;;;;1.70;99.90;;;0.49;100.00;97523.19;4951543;28;1078;-69
2024/03/08 04:15:19;;;;;;;;;;;1.70;99.90;;;0.50;100.00;97525.72;4951299;28;1410;-69
2024/03/08 04:17:46;;;;;;;;;;;1.70;99.90;;;0.39;100.00;97525.75;4941596;28;1110;-69
2024/03/08 04:20:14;;;;;;;;;;;1.70;99.90;;;0.48;100.00;97522.34;4942740;28;1359;-69
2024/03/08 04:22:41;;;;;;;;;;;1.70;99.90;;;0.49;100.00;97521.47;4945734;28;1973;-69
2024/03/08 04:25:09;;;;;;;;;;;1.60;99.90;;;0.34;100.00;97521.50;4947386;28;1224;-69
2024/03/08 04:27:36;;;;;;;;;;;1.60;99.90;;;0.42;100.00;97517.25;4944969;28;1170;-69
2024/03/08 04:30:03;;;;;;;;;;;1.60;99.90;;;0.48;100.00;97524.00;4948967;28;1352;-69
2024/03/08 04:32:32;;;;;;;;;;;1.60;99.90;;;0.24;100.00;97514.75;4949199;28;1399;-69
2024/03/08 04:35:03;;;;;;;;;;;1.60;99.90;;;0.30;100.00;97515.56;4956660;28;1356;-69
2024/03/08 04:37:30;;;;;;;;;;;1.60;99.90;;;0.19;100.00;97514.75;4960271;28;1041;-69
2024/03/08 04:39:58;;;;;;;;;;;1.50;99.90;;;0.20;100.00;97517.28;4954850;28;1013;-69
2024/03/08 04:42:26;;;;;;;;;;;1.50;99.90;;;0.12;100.00;97513.06;4956373;28;1994;-69
2024/03/08 04:44:53;;;;;;;;;;;1.50;99.90;;;0.14;100.00;97513.94;4963035;28;1085;-69
2024/03/08 04:47:20;;;;;;;;;;;1.40;99.90;;;0.05;100.00;97508.84;4952814;28;2031;-69
2024/03/08 04:49:47;;;;;;;;;;;1.40;99.90;;;-0.07;100.00;97505.47;4941609;28;1086;-69
2024/03/08 04:52:14;;;;;;;;;;;1.40;99.90;;;-0.10;100.00;97510.53;4949921;28;1383;-69
2024/03/08 04:54:41;;;;;;;;;;;1.30;99.90;;;-0.12;100.00;97504.59;4949401;28;1515;-69
2024/03/08 04:57:07;;;;;;;;;;;1.20;99.90;;;-0.10;100.00;97508.00;4950098;28;1081;-69
2024/03/08 04:59:36;;;;;;;;;;;1.20;99.90;;;-0.14;100.00;97506.28;4949717;28;1078;-69
2024/03/08 05:02:03;;;;;;;;;;;1.20;99.90;;;-0.08;100.00;97498.63;4943402;28;1903;-69
2024/03/08 05:04:30;;;;;;;;;;;1.20;99.90;;;-0.14;100.00;97501.19;4946727;28;1082;-69
2024/03/08 05:06:57;;;;;;;;;;;1.20;99.90;;;-0.10;100.00;97500.34;4944256;28;1181;-69
2024/03/08 05:09:24;;;;;;;;;;;1.10;99.90;;;-0.18;100.00;97502.06;4947636;28;1033;-69
2024/03/08 05:11:51;;;;;;;;;;;1.20;99.90;;;-0.04;100.00;97500.34;4945306;28;1378;-69
2024/03/08 05:14:19;;;;;;;;;;;1.20;99.90;;;-0.04;100.00;97502.03;4942729;28;2015;-69
2024/03/08 05:16:50;;;;;;;;;;;1.20;99.90;;;-0.07;100.00;97504.59;4941916;28;1153;-69
2024/03/08 05:19:19;;;;;;;;;;;1.20;99.90;;;-0.20;100.00;97500.38;4938548;28;1207;-69
2024/03/08 05:21:47;;;;;;;;;;;1.20;99.90;;;-0.32;100.00;97501.22;4933972;28;1879;-69
2024/03/08 05:24:15;;;;;;;;;;;1.10;99.90;;;-0.26;100.00;97501.22;4944539;28;1098;-69
2024/03/08 05:26:43;;;;;;;;;;;1.10;99.90;;;-0.33;100.00;97502.06;4975696;28;1153;-69
2024/03/08 05:29:11;;;;;;;;;;;1.10;99.90;;;-0.33;100.00;97495.28;4957748;28;1087;-69
2024/03/08 05:31:45;;;;;;;;;;;1.00;99.90;;;-0.29;100.00;97493.56;4945666;28;1383;-69
2024/03/08 05:34:14;;;;;;;;;;;1.00;99.90;;;-0.47;100.00;97487.63;4967928;28;1045;-69
2024/03/08 05:36:44;;;;;;;;;;;0.90;99.90;;;-0.33;100.00;97485.06;4956402;28;1173;-69
2024/03/08 05:39:12;;;;;;;;;;;0.90;99.90;;;-0.38;100.00;97486.78;4946930;28;1072;-69
2024/03/08 05:41:40;;;;;;;;;;;1.00;99.90;;;-0.28;100.00;97491.00;4942889;28;2070;-69
2024/03/08 05:44:08;;;;;;;;;;;0.90;99.90;;;-0.29;100.00;97489.31;4950954;28;1502;-69
2024/03/08 05:46:38;;;;;;;;;;;0.90;99.90;;;-0.32;100.00;97489.34;4956191;28;1375;-69
2024/03/08 05:49:09;;;;;;;;;;;1.00;99.90;;;-0.49;100.00;97484.22;4951376;28;1075;-69
2024/03/08 05:51:39;;;;;;;;;;;0.90;99.90;;;-0.38;100.00;97479.13;4947141;28;1261;-69
2024/03/08 05:54:09;;;;;;;;;;;0.90;99.90;;;-0.41;100.00;97481.69;4943737;28;1220;-69
2024/03/08 05:56:42;;;;;;;;;;;0.90;99.90;;;-0.39;100.00;97477.41;4941922;28;1085;-69
2024/03/08 05:59:09;;;;;;;;;;;0.80;99.90;;;-0.39;100.00;97482.50;4955544;28;1103;-69
2024/03/08 06:01:36;;;;;;;;;;;0.90;99.90;;;-0.40;100.00;97480.81;4940531;28;1903;-69
2024/03/08 06:04:03;;;;;;;;;;;0.90;99.90;;;-0.39;100.00;97479.13;4937579;28;1078;-69
2024/03/08 06:06:30;;;;;;;;;;;0.90;99.90;;;-0.34;100.00;97478.28;4956034;28;1093;-69
2024/03/08 06:08:58;;;;;;;;;;;0.90;99.90;;;-0.25;100.00;97482.50;4943273;28;1058;-69
2024/03/08 06:11:30;;;;;;;;;;;0.90;99.90;;;-0.10;100.00;97484.19;4951716;28;1252;-70
2024/03/08 06:13:59;;;;;;;;;;;1.00;99.90;;;-0.13;100.00;97492.69;4948510;28;1329;-69
2024/03/08 06:16:29;;;;;;;;;;;1.00;99.90;;;-0.16;100.00;97477.41;4943957;28;1218;-70
2024/03/08 06:18:57;;;;;;;;;;;1.10;99.90;;;-0.19;100.00;97485.03;4941696;28;1351;-69
2024/03/08 06:21:27;;;;;;;;;;;1.10;99.90;;;-0.20;100.00;97479.97;4943515;28;1899;-69
2024/03/08 06:23:57;;;;;;;;;;;1.10;99.90;;;-0.11;100.00;97477.41;4949031;28;1085;-69
2024/03/08 06:26:25;;;;;;;;;;;1.10;99.90;;;-0.15;100.00;97479.09;4958321;28;1196;-69
2024/03/08 06:28:56;;;;;;;;;;;1.10;99.90;;;-0.17;100.00;97475.69;4951417;28;1130;-69
2024/03/08 06:31:23;;;;;;;;;;;1.10;99.90;;;-0.10;100.00;97474.81;4946686;28;1316;-69
2024/03/08 06:33:50;;;;;;;;;;;1.10;99.90;;;0.00;100.00;97478.22;4955546;28;1111;-69
2024/03/08 06:36:23;;;;;;;;;;;1.10;99.90;;;0.07;100.00;97467.16;4945997;28;994;-69
2024/03/08 06:38:51;;;;;;;;;;;1.20;99.90;;;0.03;100.00;97467.16;4941619;28;1189;-69
2024/03/08 06:41:18;;;;;;;;;;;1.30;99.90;;;-0.02;100.00;97464.63;4953042;28;1985;-69
2024/03/08 06:43:48;;;;;;;;;;;1.20;99.90;;;0.12;100.00;97462.03;4944121;28;1110;-68
2024/03/08 06:46:15;;;;;;;;;;;1.20;99.90;;;0.23;100.00;97467.94;4961010;28;1055;-68
2024/03/08 06:48:42;;;;;;;;;;;1.30;99.90;;;0.24;100.00;97472.19;4942995;28;1150;-69
2024/03/08 06:51:10;;;;;;;;;;;1.40;99.90;;;0.26;100.00;97459.44;4947261;28;1389;-69
2024/03/08 06:53:41;;;;;;;;;;;1.30;99.90;;;0.36;100.00;97461.91;4943446;28;1232;-70
2024/03/08 06:56:07;;;;;;;;;;;1.40;99.90;;;0.41;100.00;97459.34;4938658;28;1141;-70
2024/03/08 06:58:35;;;;;;;;;;;1.50;99.90;;;0.52;100.00;97460.16;4945343;28;1081;-69
2024/03/08 07:01:03;;;;;;;;;;;1.50;99.90;;;0.57;100.00;97452.47;4947839;28;1311;-68
2024/03/08 07:03:32;;;;;;;;;;;1.60;99.90;;;0.55;100.00;97447.38;4950123;28;1972;-69
2024/03/08 07:06:01;;;;;;;;;;;1.70;99.90;;;0.63;100.00;97450.72;4942757;28;1304;-69
2024/03/08 07:08:28;;;;;;;;;;;1.70;99.90;;;0.66;100.00;97452.41;4941143;28;1184;-69
2024/03/08 07:10:55;;;;;;;;;;;1.70;99.90;;;0.85;100.00;97442.13;4939915;28;1324;-69
2024/03/08 07:13:22;;;;;;;;;;;1.80;99.90;;;0.78;100.00;97437.03;4954843;28;1100;-69
2024/03/08 07:15:48;;;;;;;;;;;1.90;99.90;;;0.78;100.00;97431.09;4972085;28;1065;-69
2024/03/08 07:18:15;;;;;;;;;;;1.90;99.90;;;0.92;100.00;97438.66;4974241;28;1081;-70
2024/03/08 07:20:43;;;;;;;;;;;1.90;99.90;;;0.98;100.00;97430.94;4940092;28;1387;-69
2024/03/08 07:23:10;;;;;;;;;;;1.90;99.90;;;0.98;100.00;97433.50;4944135;28;1976;-69
2024/03/08 07:25:39;;;;;;;;;;;2.10;99.90;;;1.01;100.00;97426.66;4946492;28;1352;-69
2024/03/08 07:28:06;;;;;;;;;;;2.10;99.90;;;1.19;100.00;97423.13;4948938;28;1312;-69
2024/03/08 07:33:12;;;;;;;;;;;2.20;99.90;;;1.18;100.00;97420.56;4956793;28;1110;-69
2024/03/08 07:35:40;;;;;;;;;;;2.30;99.90;;;1.27;100.00;97422.22;4941885;28;1170;-69
2024/03/08 07:38:09;;;;;;;;;;;2.40;99.90;;;1.40;100.00;97411.03;4943142;28;1053;-69
2024/03/08 07:40:40;;;;;;;;;;;2.50;99.90;;;1.42;100.00;97412.69;4949424;28;1354;-69
2024/03/08 07:43:07;;;;;;;;;;;2.50;99.90;;;1.46;100.00;97408.41;4947710;28;1977;-69
2024/03/08 07:45:35;;;;;;;;;;;2.60;99.90;;;1.77;100.00;97408.09;4947992;28;1238;-69
2024/03/08 07:48:03;;;;;;;;;;;2.70;99.90;;;1.74;100.00;97401.31;4945065;28;1202;-69
2024/03/08 07:50:32;;;;;;;;;;;2.70;99.90;;;1.95;100.00;97402.78;4951897;28;1296;-69
2024/03/08 07:53:01;;;;;;;;;;;2.90;99.90;;;2.25;100.00;97393.88;4944403;28;1245;-69
2024/03/08 07:55:28;;;;;;;;;;;3.00;99.90;;;2.75;100.00;97380.44;4947991;28;1151;-69
2024/03/08 07:57:55;;;;;;;;;;;3.30;99.90;;;2.90;100.00;97373.34;4952053;28;1237;-69
2024/03/08 08:00:24;;;;;;;;;;;;;;;2.81;100.00;97367.53;4953913;28;1417;-69
2024/03/08 08:02:51;;;;;;;;;;;4.10;99.90;;;3.26;100.00;97355.69;4947973;28;1906;-69
2024/03/08 08:05:18;;;;;;;;;;;4.50;99.90;;;3.52;100.00;97336.41;4945396;28;1180;-69
2024/03/08 08:07:45;;;;;;;;;;;5.10;99.90;;;3.46;100.00;97341.66;4951311;28;1074;-69
2024/03/08 08:10:21;;;;;;;;;;;5.30;99.90;;;4.25;100.00;97330.69;4946444;28;1316;-69
2024/03/08 08:12:49;;;;;;;;;;;6.00;99.90;;;4.83;100.00;97313.94;4945194;28;1165;-69
2024/03/08 08:15:16;;;;;;;;;;;6.90;99.90;;;5.57;100.00;97299.22;4943874;28;1121;-69
2024/03/08 08:17:43;;;;;;;;;;;7.50;99.90;;;5.22;100.00;97293.25;4948458;28;1192;-69
2024/03/08 08:20:11;;;;;;;;;;;7.50;99.90;;;4.73;100.00;97290.19;4946115;28;1172;-69
2024/03/08 08:22:40;;;;;;;;;;;7.20;99.90;;;5.01;100.00;97282.63;4940506;28;1903;-68
2024/03/08 08:25:07;;;;;;;;;;;6.70;99.90;;;5.13;100.00;97286.63;4945673;28;1138;-68
2024/03/08 08:27:36;;;;;;;;;;;6.90;99.90;;;5.85;100.00;97274.38;4940461;28;1098;-68
2024/03/08 08:30:07;;;;;;;;;;;7.40;99.90;;;6.18;100.00;97260.56;4946705;28;1046;-68
2024/03/08 08:32:36;;;;;;;;;;;7.80;99.90;;;6.61;100.00;97243.78;4971424;28;1519;-67
2024/03/08 08:35:04;;;;;;;;;;;8.40;99.90;;;6.27;100.00;97237.97;4973775;28;1132;-68
2024/03/08 08:37:31;;;;;;;;;;;8.50;99.90;;;5.99;100.00;97237.09;4944523;28;1084;-68
2024/03/08 08:40:01;;;;;;;;;;;7.90;99.90;;;4.88;100.00;97241.81;4945749;28;1086;-70
2024/03/08 08:42:28;;;;;;;;;;;7.60;99.90;;;5.69;100.00;97243.97;4940336;28;2014;-70
2024/03/08 08:44:55;;;;;;;;;;;8.10;99.90;;;5.82;100.00;97240.97;4941130;28;1060;-70
2024/03/08 08:47:23;;;;;;;;;;;7.80;99.90;;;6.30;100.00;97231.03;4940610;28;1434;-70
2024/03/08 08:49:50;;;;;;;;;;;7.80;99.90;;;6.22;100.00;97216.63;4938815;28;1079;-70
2024/03/08 08:52:18;;;;;;;;;;;8.20;99.90;;;6.81;100.00;97217.34;4946453;28;1249;-70
2024/03/08 08:54:45;;;;;;;;;;;8.80;99.90;;;7.06;100.00;97204.44;4944334;28;1333;-70
2024/03/08 08:57:16;;;;;;;;;;;8.50;99.90;;;7.20;100.00;97194.47;4948921;28;1081;-67
2024/03/08 08:59:42;;;;;;;;;;;8.80;99.90;;;8.02;100.00;97181.97;4946285;28;1189;-70
2024/03/08 09:02:09;;;;;;;;;;;9.10;99.90;;;8.14;100.00;97176.34;4945999;28;1907;-70
2024/03/08 09:04:40;;;;;;;;;;;9.50;99.90;;;7.21;100.00;97166.94;4941722;28;1073;-69
2024/03/08 09:07:07;;;;;;;;;;;9.30;99.90;;;7.43;100.00;97175.56;4947608;28;1122;-69
2024/03/08 09:09:34;;;;;;;;;;;9.20;99.90;;;7.73;100.00;97163.28;4946513;28;1135;-69
2024/03/08 09:12:01;;;;;;;;;;;9.20;99.90;;;6.25;100.00;97188.19;4942201;28;1311;-69
2024/03/08 09:14:29;;;;;;;;;;;8.60;99.90;;;6.61;100.00;97182.72;4945270;28;1130;-69
2024/03/08 09:16:56;;;;;;;;;;;8.60;99.90;;;6.45;100.00;97181.53;4945181;28;1275;-69
2024/03/08 09:19:25;;;;;;;;;;;8.50;99.90;;;7.29;100.00;97185.56;4939612;28;1182;-70
2024/03/08 09:21:52;;;;;;;;;;;8.60;99.90;;;6.80;100.00;97180.38;4941705;28;1359;-70
2024/03/08 09:24:19;;;;;;;;;;;8.80;99.90;;;7.20;100.00;97166.09;4944816;28;1990;-70
2024/03/08 09:26:46;;;;;;;;;;;8.80;99.90;;;8.09;100.00;97157.56;4944300;28;1196;-69
2024/03/08 09:29:13;;;;;;;;;;;9.40;99.90;;;8.05;100.00;97150.88;4945887;28;1362;-69
2024/03/08 09:31:40;;;;;;;;;;;9.80;99.90;;;7.35;100.00;97150.97;4942990;28;1408;-70
2024/03/08 09:34:08;;;;;;;;;;;10.10;99.90;;;7.07;100.00;97155.38;4947254;28;1090;-69
2024/03/08 09:36:37;;;;;;;;;;;10.20;99.90;;;6.68;100.00;97166.16;4945405;28;1429;-69
2024/03/08 09:39:07;;;;;;;;;;;10.20;99.90;;;6.16;100.00;97154.97;4958403;28;1179;-69
2024/03/08 09:41:34;;;;;;;;;;;9.40;99.90;;;6.18;100.00;97157.50;4941344;28;1400;-70
2024/03/08 09:44:01;;;;;;;;;;;8.90;99.90;;;5.65;100.00;97163.38;4939697;28;1911;-69
2024/03/08 09:46:27;;;;;;;;;;;8.40;99.90;;;5.79;100.00;97165.53;4948235;28;1158;-69
2024/03/08 09:48:54;;;;;;;;;;;8.10;99.90;;;5.59;100.00;97168.72;4943490;28;1261;-71
2024/03/08 09:51:27;;;;;;;;;;;7.80;99.90;;;5.36;100.00;97170.22;4943437;28;1402;-69
2024/03/08 09:53:54;;;;;;;;;;;7.50;99.90;;;5.71;100.00;97168.34;4945964;28;1039;-69
2024/03/08 09:56:23;;;;;;;;;;;7.30;99.90;;;5.53;100.00;97156.84;4946844;28;1138;-69
2024/03/08 10:01:35;;;;;;;;;;;6.90;99.90;;;5.02;100.00;97158.28;4945110;28;1374;-69
2024/03/08 10:04:02;;;;;;;;;;;6.70;99.90;;;5.07;100.00;97165.88;4938379;28;2154;-69
2024/03/08 10:06:29;;;;;;;;;;;6.40;99.90;;;5.21;100.00;97168.91;4940743;28;1181;-69
2024/03/08 10:08:57;;;;;;;;;;;6.40;99.90;;;5.23;100.00;97159.41;4943235;28;1070;-68
2024/03/08 10:11:26;;;;;;;;;;;6.40;99.90;;;5.32;100.00;97157.47;4948229;28;1367;-69
2024/03/08 10:13:54;;;;;;;;;;;6.30;99.90;;;5.16;100.00;97164.78;4937572;28;1363;-69
2024/03/08 10:16:24;;;;;;;;;;;6.30;99.90;;;5.17;100.00;97169.03;4955364;28;1113;-69
2024/03/08 10:18:53;;;;;;;;;;;6.40;99.90;;;5.09;100.00;97174.41;4943309;28;1335;-68
2024/03/08 10:21:19;;;;;;;;;;;6.40;99.90;;;5.48;100.00;97158.72;4938886;28;1261;-68
2024/03/08 10:23:48;;;;;;;;;;;6.30;99.90;;;5.21;100.00;97156.03;4938972;28;1911;-69
2024/03/08 10:26:20;;;;;;;;;;;6.40;99.90;;;5.02;100.00;97162.59;4948385;28;1118;-69
2024/03/08 10:28:52;;;;;;;;;;;6.40;99.90;;;5.07;100.00;97154.75;4943190;28;1398;-69
2024/03/08 10:31:20;;;;;;;;;;;6.20;99.90;;;5.08;100.00;97159.00;4977913;28;1331;-68
2024/03/08 10:33:47;;;;;;;;;;;6.20;99.90;;;4.75;100.00;97154.72;4938170;28;1436;-69
2024/03/08 10:36:14;;;;;;;;;;;6.10;99.90;;;4.78;100.00;97158.94;4948216;28;1299;-69
2024/03/08 10:38:43;;;;;;;;;;;6.00;99.90;;;4.77;100.00;97152.13;4942105;28;1327;-69
2024/03/08 10:41:11;;;;;;;;;;;5.90;99.90;;;4.69;100.00;97152.28;4943404;28;1399;-69
2024/03/08 10:43:46;;;;;;;;;;;6.00;99.90;;;4.97;100.00;97152.44;4942279;28;1927;-69
2024/03/08 10:46:35;;;;;;;;;;;5.90;99.90;;;4.88;100.00;97152.69;4944238;28;1403;-69
2024/03/08 10:49:04;;;;;;;;;;;5.90;99.90;;;4.88;100.00;97157.81;4941164;28;1351;-69
2024/03/08 10:51:31;;;;;;;;;;;5.90;99.90;;;4.84;100.00;97166.50;4957934;28;1401;-69
2024/03/08 10:53:59;;;;;;;;;;;6.00;99.90;;;5.04;100.00;97158.25;4939797;28;1361;-69
2024/03/08 10:56:27;;;;;;;;;;;6.00;99.90;;;5.11;100.00;97158.91;4941230;28;1469;-69
2024/03/08 10:58:55;;;;;;;;;;;6.10;99.90;;;5.08;100.00;97154.69;4953392;28;1286;-68
2024/03/08 11:01:24;;;;;;;;;;;6.00;99.90;;;4.94;100.00;97157.63;4949430;28;1328;-69
2024/03/08 11:03:53;;;;;;;;;;;6.00;99.90;;;5.27;100.00;97154.16;4942330;28;1903;-68
2024/03/08 11:06:30;;;;;;;;;;;6.20;99.90;;;5.57;100.00;97155.88;4973301;28;1345;-68
2024/03/08 11:08:58;;;;;;;;;;;6.30;99.90;;;5.36;100.00;97143.63;4940547;28;1415;-68
2024/03/08 11:11:34;;;;;;;;;;;6.30;99.90;;;5.66;100.00;97145.31;4938475;28;1328;-68
2024/03/08 11:14:02;;;;;;;;;;;6.40;99.90;;;5.63;100.00;97139.38;4945682;28;1367;-69
2024/03/08 11:16:29;;;;;;;;;;;6.40;99.90;;;5.43;100.00;97140.84;4945145;28;1237;-68
2024/03/08 11:19:05;;;;;;;;;;;6.40;99.90;;;5.57;100.00;97131.88;4941152;28;1675;-69
2024/03/08 11:21:33;;;;;;;;;;;6.40;99.90;;;5.63;100.00;97124.81;4940221;28;1328;-69
2024/03/08 11:24:07;;;;;;;;;;;6.50;99.90;;;5.57;100.00;97132.72;4937947;28;1916;-68
2024/03/08 11:26:37;;;;;;;;;;;6.40;99.90;;;5.48;100.00;97125.25;4945651;28;1070;-68
2024/03/08 11:29:35;;;;;;;;;;;6.50;99.90;;;5.18;100.00;97116.69;4948651;28;1184;-68
2024/03/08 11:32:05;;;;;;;;;;;6.40;99.90;;;5.51;100.00;97127.72;4955944;28;1395;-70
2024/03/08 11:34:33;;;;;;;;;;;6.40;99.90;;;5.82;100.00;97121.66;4959830;28;1135;-70
2024/03/08 11:37:00;;;;;;;;;;;6.50;99.90;;;6.15;100.00;97122.34;4951943;28;1134;-70
2024/03/08 11:39:28;;;;;;;;;;;6.60;99.90;;;5.91;100.00;97123.97;4952235;28;1472;-70
2024/03/08 11:41:55;;;;;;;;;;;6.70;99.90;;;6.10;100.00;97113.94;4955574;28;2040;-68